Time;durP1;ratioP1;P1;durP2;ratioP2;P2;SDS_P1;SDS_P2;PMS_P1;PMS_P2;Temp;Humidity;BMP_temperature;BMP_pressure;BME280_temperature;BME280_humidity;BME280_pressure;Samples;Min_cycle;Max_cycle;Signal;HPM_P1;HPM_P2
2021/04/29 00:01:11;;;;;;;12.20;7.35;;;;;;;6.43;49.59;99605.34;1789746;80;21767;-40
2021/04/29 00:03:38;;;;;;;10.43;6.75;;;;;;;6.41;49.82;99607.56;1788953;80;21117;-40
2021/04/29 00:06:07;;;;;;;12.90;7.47;;;;;;;6.38;49.95;99600.15;1788505;80;21607;-40
2021/04/29 00:08:35;;;;;;;11.25;6.97;;;;;;;6.35;50.05;99589.45;1788294;78;21363;-40
2021/04/29 00:11:05;;;;;;;16.17;7.42;;;;;;;6.34;50.25;99600.57;1779791;80;21020;-39
2021/04/29 00:13:34;;;;;;;10.88;7.35;;;;;;;6.32;50.34;99596.84;1806672;79;21142;-40
2021/04/29 00:16:03;;;;;;;10.72;7.05;;;;;;;6.29;50.54;99596.16;1780000;80;21161;-40
2021/04/29 00:18:32;;;;;;;11.73;6.60;;;;;;;6.25;50.63;99593.07;1748978;81;21191;-39
2021/04/29 00:21:00;;;;;;;12.73;7.42;;;;;;;6.19;50.79;99597.87;1760945;81;21395;-40
2021/04/29 00:23:29;;;;;;;10.60;7.17;;;;;;;6.16;50.96;99589.08;1796136;79;21644;-40
2021/04/29 00:25:57;;;;;;;11.68;7.12;;;;;;;6.13;51.06;99587.60;1761259;81;21197;-40
2021/04/29 00:28:25;;;;;;;12.85;7.47;;;;;;;6.08;51.21;99593.95;1794257;80;21162;-40
2021/04/29 00:30:53;;;;;;;16.00;7.90;;;;;;;6.04;51.26;99588.44;1794252;80;21417;-40
2021/04/29 00:33:22;;;;;;;11.97;7.28;;;;;;;6.02;51.42;99588.52;1770708;80;21418;-40
2021/04/29 00:35:49;;;;;;;10.50;7.78;;;;;;;5.97;51.55;99586.80;1826860;78;21605;-40
2021/04/29 00:38:17;;;;;;;11.40;7.47;;;;;;;5.93;51.76;99589.11;1762792;81;21155;-40
2021/04/29 00:40:46;;;;;;;14.87;8.63;;;;;;;5.88;51.94;99590.08;1794176;80;21650;-40
2021/04/29 00:43:14;;;;;;;12.85;8.25;;;;;;;5.83;52.14;99590.78;1794251;80;21198;-40
2021/04/29 00:45:45;;;;;;;13.22;7.87;;;;;;;5.77;52.24;99596.88;1794317;80;21606;-40
2021/04/29 00:48:14;;;;;;;11.35;7.55;;;;;;;5.73;52.41;99591.13;1794284;80;21168;-40
2021/04/29 00:50:43;;;;;;;13.28;7.65;;;;;;;5.68;52.54;99590.19;1794334;80;21202;-40
2021/04/29 00:53:11;;;;;;;14.87;8.58;;;;;;;5.66;52.70;99592.39;1794216;80;21153;-40
2021/04/29 00:55:39;;;;;;;14.65;8.98;;;;;;;5.65;52.80;99592.19;1762763;81;21150;-40
2021/04/29 00:58:07;;;;;;;12.43;8.23;;;;;;;5.64;52.92;99584.43;1794254;78;21409;-40
2021/04/29 01:00:37;;;;;;;12.58;9.03;;;;;;;5.61;53.05;99591.25;1794241;80;21148;-40
2021/04/29 01:03:17;;;;;;;13.88;8.43;;;;;;;5.59;53.19;99591.33;1794349;78;20987;-40
2021/04/29 01:05:51;;;;;;;15.18;8.43;;;;;;;5.54;53.34;99587.45;1807877;79;21162;-40
2021/04/29 01:08:40;;;;;;;12.70;8.30;;;;;;;5.46;53.60;99589.63;1808061;79;21558;-40
2021/04/29 01:11:15;;;;;;;13.53;8.18;;;;;;;5.40;53.85;99583.63;1807860;79;21355;-40
2021/04/29 01:13:48;;;;;;;14.05;8.60;;;;;;;5.33;54.01;99584.64;1761235;81;21169;-40
2021/04/29 01:16:17;;;;;;;12.18;8.00;;;;;;;5.29;54.23;99586.95;1794451;80;21200;-40
2021/04/29 01:18:46;;;;;;;10.95;7.95;;;;;;;5.24;54.39;99586.01;1794326;80;21064;-40
2021/04/29 01:21:16;;;;;;;10.72;7.67;;;;;;;5.24;54.43;99583.88;1794325;80;21118;-40
2021/04/29 01:23:59;;;;;;;12.18;7.97;;;;;;;5.25;54.43;99585.45;1807766;78;21427;-40
2021/04/29 01:26:42;;;;;;;12.78;8.40;;;;;;;5.28;54.49;99588.08;1789248;80;21608;-40
2021/04/29 01:29:17;;;;;;;11.08;7.78;;;;;;;5.29;54.54;99590.43;1789263;80;21050;-40
2021/04/29 01:31:45;;;;;;;11.75;7.80;;;;;;;5.29;54.47;99589.08;1789285;80;21726;-40
2021/04/29 01:34:15;;;;;;;11.08;7.70;;;;;;;5.28;54.48;99592.88;1793692;79;21616;-40
2021/04/29 01:36:45;;;;;;;13.93;8.13;;;;;;;5.26;54.63;99587.05;1796614;79;21365;-40
2021/04/29 01:39:14;;;;;;;13.57;8.40;;;;;;;5.25;54.87;99590.83;1796667;79;21185;-40
2021/04/29 01:41:45;;;;;;;14.35;8.45;;;;;;;5.23;54.98;99589.00;1769003;81;21141;-40
2021/04/29 01:44:14;;;;;;;11.48;8.00;;;;;;;5.23;55.10;99593.04;1799608;79;21587;-40
2021/04/29 01:46:42;;;;;;;11.25;8.10;;;;;;;5.20;55.20;99588.31;1770194;79;21145;-40
2021/04/29 01:49:12;;;;;;;12.60;8.23;;;;;;;5.18;55.32;99593.23;1788526;79;21272;-39
2021/04/29 01:51:40;;;;;;;12.23;8.53;;;;;;;5.13;55.56;99587.44;1786873;80;21156;-40
2021/04/29 01:54:10;;;;;;;12.10;8.33;;;;;;;5.09;55.69;99588.39;1786916;80;21164;-40
2021/04/29 01:56:39;;;;;;;11.20;8.40;;;;;;;5.08;55.87;99589.52;1786895;80;21163;-40
2021/04/29 01:59:08;;;;;;;14.03;8.90;;;;;;;5.06;56.07;99595.20;1762951;80;21563;-40
2021/04/29 02:01:38;;;;;;;14.00;8.58;;;;;;;5.05;56.11;99593.61;1778747;78;21430;-40
2021/04/29 02:04:09;;;;;;;13.38;9.13;;;;;;;5.05;56.22;99588.23;1768020;81;21176;-40
2021/04/29 02:06:42;;;;;;;16.00;9.35;;;;;;;5.05;56.28;99590.92;1767963;81;21082;-40
2021/04/29 02:09:11;;;;;;;16.50;9.03;;;;;;;5.04;56.39;99589.89;1768028;81;21105;-40
2021/04/29 02:11:48;;;;;;;13.68;8.70;;;;;;;5.03;56.47;99587.78;1768104;81;21604;-40
2021/04/29 02:14:42;;;;;;;18.02;9.45;;;;;;;5.04;56.55;99590.69;1887655;75;22763;-40
2021/04/29 02:17:15;;;;;;;17.07;9.80;;;;;;;5.03;56.64;99589.67;1857383;77;20998;-39
2021/04/29 02:19:43;;;;;;;15.55;10.15;;;;;;;4.98;56.91;99593.86;1858786;77;22386;-40
2021/04/29 02:22:12;;;;;;;16.12;9.60;;;;;;;4.94;57.11;99591.58;1826519;77;21047;-40
2021/04/29 02:24:40;;;;;;;14.30;9.48;;;;;;;4.87;57.18;99591.25;1789029;80;21039;-40
2021/04/29 02:27:08;;;;;;;13.90;8.80;;;;;;;4.81;57.34;99591.95;1815755;78;21288;-39
2021/04/29 02:29:36;;;;;;;16.42;9.15;;;;;;;4.75;57.36;99587.83;1789089;80;21027;-40
2021/04/29 02:32:06;;;;;;;12.73;8.53;;;;;;;4.73;57.40;99589.51;1821556;78;22140;-40
2021/04/29 02:34:35;;;;;;;13.13;9.65;;;;;;;4.70;57.50;99586.64;1789319;80;20980;-40
2021/04/29 02:37:04;;;;;;;12.93;9.55;;;;;;;4.67;57.86;99586.73;1805548;78;20981;-40
2021/04/29 02:39:32;;;;;;;12.85;9.35;;;;;;;4.62;58.06;99588.77;1780439;80;21178;-40
2021/04/29 02:42:00;;;;;;;14.25;9.38;;;;;;;4.55;58.38;99595.17;1789118;80;21154;-40
2021/04/29 02:44:29;;;;;;;14.78;9.25;;;;;;;4.51;58.55;99588.28;1821538;78;22249;-40
2021/04/29 02:46:58;;;;;;;14.28;10.20;;;;;;;4.48;58.70;99588.92;1789088;80;21093;-40
2021/04/29 02:49:26;;;;;;;19.25;9.68;;;;;;;4.45;58.82;99581.50;1789152;80;21762;-40
2021/04/29 02:51:54;;;;;;;14.47;8.98;;;;;;;4.42;59.04;99588.02;1821451;78;21146;-39
2021/04/29 02:54:22;;;;;;;12.95;8.83;;;;;;;4.41;59.18;99588.57;1789087;80;21185;-40
2021/04/29 02:56:50;;;;;;;11.05;7.50;;;;;;;4.45;59.30;99585.53;1790119;78;21618;-40
2021/04/29 02:59:18;;;;;;;12.03;8.53;;;;;;;4.55;59.17;99591.15;1789149;80;21772;-39
2021/04/29 03:01:46;;;;;;;13.55;7.80;;;;;;;4.57;59.24;99589.72;1821408;78;21023;-40
2021/04/29 03:04:14;;;;;;;10.28;7.65;;;;;;;4.62;59.25;99586.09;1789229;79;21614;-40
2021/04/29 03:06:43;;;;;;;12.58;7.87;;;;;;;4.63;59.28;99587.13;1821507;78;21165;-39
2021/04/29 03:09:11;;;;;;;13.13;8.68;;;;;;;4.64;59.39;99591.41;1789107;80;21364;-40
2021/04/29 03:11:40;;;;;;;12.35;8.58;;;;;;;4.65;59.34;99590.82;1787323;80;21158;-40
2021/04/29 03:14:08;;;;;;;12.28;8.65;;;;;;;4.63;59.46;99588.47;1792707;78;21575;-40
2021/04/29 03:16:36;;;;;;;12.70;8.03;;;;;;;4.62;59.62;99588.22;1821355;78;21190;-39
2021/04/29 03:19:04;;;;;;;12.68;8.13;;;;;;;4.62;59.72;99590.11;1789301;80;21545;-40
2021/04/29 03:21:33;;;;;;;11.35;7.62;;;;;;;4.60;59.93;99589.08;1821441;78;21268;-39
2021/04/29 03:24:02;;;;;;;9.58;6.95;;;;;;;4.59;59.98;99597.47;1788923;80;21173;-40
2021/04/29 03:26:31;;;;;;;11.33;7.33;;;;;;;4.60;60.06;99594.45;1820782;78;21158;-40
2021/04/29 03:29:00;;;;;;;10.28;7.60;;;;;;;4.69;60.01;99591.25;1788526;80;21356;-40
2021/04/29 03:31:27;;;;;;;10.85;7.58;;;;;;;4.73;59.87;99590.85;1820967;78;21150;-40
2021/04/29 03:33:55;;;;;;;11.18;8.13;;;;;;;4.77;59.79;99594.48;1768202;80;21203;-39
2021/04/29 03:36:23;;;;;;;10.08;7.60;;;;;;;4.79;59.85;99588.81;1776980;79;21007;-40
2021/04/29 03:38:53;;;;;;;12.70;8.15;;;;;;;4.78;59.87;99590.70;1804491;79;21166;-40
2021/04/29 03:41:21;;;;;;;12.65;8.40;;;;;;;4.76;60.05;99596.13;1804914;79;21537;-40
2021/04/29 03:43:49;;;;;;;13.20;7.67;;;;;;;4.76;60.14;99598.27;1804493;79;21187;-40
2021/04/29 03:46:17;;;;;;;12.78;8.30;;;;;;;4.77;60.14;99599.86;1804573;79;21600;-39
2021/04/29 03:48:44;;;;;;;11.10;8.03;;;;;;;4.79;60.20;99603.58;1804594;79;21575;-40
2021/04/29 03:51:12;;;;;;;10.93;8.10;;;;;;;4.82;60.18;99608.31;1804538;79;21153;-40
2021/04/29 03:53:40;;;;;;;9.43;7.35;;;;;;;4.90;60.24;99609.41;1804446;79;21130;-39
2021/04/29 03:56:08;;;;;;;10.32;7.33;;;;;;;5.01;60.26;99609.34;1804575;79;21157;-40
2021/04/29 03:58:38;;;;;;;14.47;8.73;;;;;;;5.12;60.23;99609.27;1803380;79;21034;-40
2021/04/29 04:01:06;;;;;;;10.32;8.15;;;;;;;5.22;60.22;99603.02;1786012;79;21114;-40
2021/04/29 04:03:34;;;;;;;12.60;8.48;;;;;;;5.34;60.20;99610.98;1801112;79;21025;-40
2021/04/29 04:06:03;;;;;;;13.03;8.63;;;;;;;5.42;60.14;99610.20;1788543;80;21086;-40
2021/04/29 04:08:31;;;;;;;10.53;8.13;;;;;;;5.49;60.30;99605.90;1820833;78;21605;-39
2021/04/29 04:10:59;;;;;;;11.60;8.55;;;;;;;5.56;60.42;99608.91;1791479;78;21665;-40
2021/04/29 04:13:27;;;;;;;12.03;8.80;;;;;;;5.63;60.60;99603.81;1781993;79;21206;-40
2021/04/29 04:15:55;;;;;;;9.83;7.60;;;;;;;5.71;60.90;99610.30;1797545;79;21727;-40
2021/04/29 04:18:23;;;;;;;9.70;7.55;;;;;;;5.83;60.95;99604.23;1796788;79;21348;-40
2021/04/29 04:20:51;;;;;;;15.53;8.70;;;;;;;6.02;60.84;99603.31;1760306;81;21165;-41
2021/04/29 04:23:18;;;;;;;10.03;7.87;;;;;;;6.14;60.70;99606.13;1756482;81;21438;-40
2021/04/29 04:25:47;;;;;;;11.75;8.13;;;;;;;6.25;60.58;99603.28;1772298;80;21614;-40
2021/04/29 04:28:15;;;;;;;12.03;8.60;;;;;;;6.34;60.45;99601.91;1772509;80;21181;-40
2021/04/29 04:30:43;;;;;;;10.00;7.95;;;;;;;6.41;60.28;99603.52;1772373;80;21851;-40
2021/04/29 04:33:11;;;;;;;9.58;7.60;;;;;;;6.48;60.17;99599.22;1772464;80;21742;-39
2021/04/29 04:35:39;;;;;;;11.65;9.03;;;;;;;6.53;59.95;99602.28;1772672;80;23516;-40
2021/04/29 04:38:07;;;;;;;10.70;8.03;;;;;;;6.57;59.89;99597.81;1760172;81;21166;-40
2021/04/29 04:40:35;;;;;;;11.73;7.92;;;;;;;6.61;60.05;99603.33;1760212;81;21178;-40
2021/04/29 04:43:03;;;;;;;12.88;8.10;;;;;;;6.71;59.77;99597.56;1792095;80;21039;-40
2021/04/29 04:45:31;;;;;;;13.13;8.43;;;;;;;6.85;59.62;99595.39;1763691;81;21165;-40
2021/04/29 04:47:59;;;;;;;9.55;7.53;;;;;;;6.94;59.50;99604.99;1760241;81;21196;-40
2021/04/29 04:50:28;;;;;;;9.15;7.72;;;;;;;7.07;59.21;99603.13;1760289;81;21034;-40
2021/04/29 04:52:56;;;;;;;11.45;7.30;;;;;;;7.17;59.04;99604.08;1791992;80;21181;-40
2021/04/29 04:55:24;;;;;;;11.18;8.25;;;;;;;7.30;58.69;99599.55;1763691;81;21239;-40
2021/04/29 04:57:52;;;;;;;9.28;7.40;;;;;;;7.38;58.70;99600.80;1760128;81;21178;-40
2021/04/29 05:00:21;;;;;;;8.00;6.97;;;;;;;7.49;58.42;99603.09;1760264;81;21371;-40
2021/04/29 05:02:49;;;;;;;10.63;7.30;;;;;;;7.58;58.24;99605.14;1790524;80;21043;-40
2021/04/29 05:05:17;;;;;;;8.48;6.92;;;;;;;7.68;57.84;99611.46;1782384;80;21186;-40
2021/04/29 05:07:46;;;;;;;10.13;7.50;;;;;;;7.78;57.48;99607.78;1773005;80;21671;-40
2021/04/29 05:10:15;;;;;;;9.23;7.20;;;;;;;7.89;57.05;99614.86;1759891;81;21205;-40
2021/04/29 05:12:45;;;;;;;8.85;7.10;;;;;;;7.95;56.74;99613.53;1757051;81;21186;-40
2021/04/29 05:15:13;;;;;;;9.13;6.90;;;;;;;8.01;56.81;99621.64;1760427;80;21031;-40
2021/04/29 05:17:41;;;;;;;9.70;7.12;;;;;;;8.04;56.60;99619.61;1754307;81;21174;-40
2021/04/29 05:20:11;;;;;;;13.48;8.00;;;;;;;8.09;56.56;99613.99;1759961;81;21636;-40
2021/04/29 05:22:38;;;;;;;9.33;7.30;;;;;;;8.17;56.72;99609.63;1762347;80;21153;-40
2021/04/29 05:25:08;;;;;;;10.25;6.97;;;;;;;8.27;56.43;99604.58;1791456;80;21281;-41
2021/04/29 05:27:35;;;;;;;10.78;7.03;;;;;;;8.38;56.48;99613.58;1791529;80;21679;-40
2021/04/29 05:30:06;;;;;;;11.35;7.37;;;;;;;8.50;56.28;99613.59;1778658;80;21170;-40
2021/04/29 05:32:34;;;;;;;7.92;6.28;;;;;;;8.58;56.23;99611.32;1791455;80;21051;-40
2021/04/29 05:35:05;;;;;;;8.23;6.50;;;;;;;8.68;55.95;99610.86;1760446;80;21129;-40
2021/04/29 05:37:32;;;;;;;8.63;7.00;;;;;;;8.78;55.67;99602.84;1771241;80;22582;-40
2021/04/29 05:40:00;;;;;;;9.33;6.85;;;;;;;8.88;55.66;99601.02;1785841;80;21162;-41
2021/04/29 05:42:28;;;;;;;9.28;7.08;;;;;;;8.95;55.40;99596.63;1785894;80;21174;-40
2021/04/29 05:44:57;;;;;;;7.75;6.30;;;;;;;9.03;55.35;99604.37;1785943;80;21122;-40
2021/04/29 05:47:24;;;;;;;7.60;6.17;;;;;;;9.12;55.19;99607.16;1785962;80;21664;-40
2021/04/29 05:49:52;;;;;;;8.98;6.53;;;;;;;9.23;55.18;99604.75;1785970;80;22185;-41
2021/04/29 05:52:20;;;;;;;8.05;6.55;;;;;;;9.37;55.10;99604.35;1785914;80;21114;-41
2021/04/29 05:54:50;;;;;;;11.75;6.25;;;;;;;9.48;54.53;99600.02;1775933;80;21044;-41
2021/04/29 05:57:18;;;;;;;7.83;6.55;;;;;;;9.56;54.33;99602.56;1764473;81;21146;-41
2021/04/29 05:59:46;;;;;;;8.63;6.40;;;;;;;9.63;54.20;99599.27;1791437;80;21167;-40
2021/04/29 06:02:14;;;;;;;7.35;6.03;;;;;;;9.72;53.97;99599.11;1791480;79;22835;-41
2021/04/29 06:04:43;;;;;;;7.85;6.60;;;;;;;9.75;53.67;99605.95;1791382;80;21150;-41
2021/04/29 06:07:11;;;;;;;9.68;7.35;;;;;;;9.76;54.15;99599.41;1791561;80;21121;-40
2021/04/29 06:09:39;;;;;;;10.65;7.03;;;;;;;9.79;53.85;99597.36;1791538;80;21632;-41
2021/04/29 06:12:08;;;;;;;10.78;7.40;;;;;;;9.84;53.85;99609.28;1791377;80;21766;-41
2021/04/29 06:14:37;;;;;;;9.68;7.87;;;;;;;9.91;53.84;99605.41;1802218;79;22098;-41
2021/04/29 06:17:05;;;;;;;9.55;7.50;;;;;;;10.05;53.93;99614.45;1778647;80;21166;-41
2021/04/29 06:19:34;;;;;;;9.48;7.58;;;;;;;10.17;53.92;99608.17;1791508;80;21185;-40
2021/04/29 06:22:03;;;;;;;9.93;7.75;;;;;;;10.27;53.47;99607.66;1778811;80;21633;-40
2021/04/29 06:24:31;;;;;;;9.28;7.03;;;;;;;10.34;53.38;99604.56;1759864;81;22110;-41
2021/04/29 06:26:59;;;;;;;10.10;7.30;;;;;;;10.16;53.48;99559.22;1747774;82;21190;-40
2021/04/29 06:29:28;;;;;;;10.60;7.00;;;;;;;10.61;52.97;99600.13;1759864;81;21376;-40
2021/04/29 06:31:57;;;;;;;7.80;5.78;;;;;;;10.71;52.81;99595.52;1759921;81;21197;-41
2021/04/29 06:34:25;;;;;;;7.78;6.30;;;;;;;10.83;52.64;99591.91;1768969;80;21178;-41
2021/04/29 06:36:53;;;;;;;8.05;6.22;;;;;;;10.96;52.19;99581.70;1791202;80;21605;-41
2021/04/29 06:39:21;;;;;;;6.58;5.72;;;;;;;11.08;52.18;99588.36;1791158;79;22894;-41
2021/04/29 06:41:50;;;;;;;7.30;5.42;;;;;;;11.23;51.50;99598.36;1791074;79;21621;-41
2021/04/29 06:44:18;;;;;;;7.47;5.12;;;;;;;11.36;51.42;99594.34;1791169;80;21612;-41
2021/04/29 06:46:48;;;;;;;6.28;5.30;;;;;;;11.48;50.77;99600.96;1791281;79;21082;-41
2021/04/29 06:49:16;;;;;;;8.63;5.40;;;;;;;11.60;50.84;99594.59;1778803;80;21630;-41
2021/04/29 06:51:44;;;;;;;8.05;5.60;;;;;;;11.71;50.45;99590.16;1791077;80;21267;-41
2021/04/29 06:54:12;;;;;;;6.33;5.12;;;;;;;11.83;50.38;99592.70;1778514;80;21189;-41
2021/04/29 06:56:40;;;;;;;9.20;5.00;;;;;;;11.96;49.95;99594.66;1765216;81;21649;-41
2021/04/29 06:59:08;;;;;;;8.13;5.05;;;;;;;12.06;49.80;99585.91;1797387;79;21147;-41
2021/04/29 07:01:37;;;;;;;5.83;4.97;;;;;;;12.19;48.70;99591.38;1777170;80;21169;-41
2021/04/29 07:04:05;;;;;;;6.47;4.92;;;;;;;12.28;48.43;99582.39;1779024;80;22219;-41
2021/04/29 07:06:33;;;;;;;5.40;4.70;;;;;;;12.36;48.54;99579.98;1791196;80;21086;-41
2021/04/29 07:09:02;;;;;;;7.70;5.20;;;;;;;12.47;48.36;99580.94;1791237;80;21166;-41
2021/04/29 07:11:31;;;;;;;5.47;4.67;;;;;;;12.58;47.86;99588.69;1778842;80;21178;-41
2021/04/29 07:13:59;;;;;;;7.47;5.40;;;;;;;12.68;47.73;99591.92;1759211;81;21273;-41
2021/04/29 07:16:27;;;;;;;8.03;4.87;;;;;;;12.74;47.41;99578.97;1730081;82;21322;-41
2021/04/29 07:18:56;;;;;;;5.42;3.85;;;;;;;12.79;46.71;99585.45;1745986;81;21214;-41
2021/04/29 07:21:24;;;;;;;5.30;4.47;;;;;;;12.82;46.57;99598.91;1709668;83;21175;-41
2021/04/29 07:23:56;;;;;;;7.10;4.72;;;;;;;12.82;46.38;99586.67;1724362;81;21212;-41
2021/04/29 07:26:25;;;;;;;7.65;4.70;;;;;;;12.79;46.33;99583.30;1738664;82;21161;-41
2021/04/29 07:28:53;;;;;;;7.08;4.37;;;;;;;12.81;46.25;99585.09;1738875;82;21347;-41
2021/04/29 07:31:21;;;;;;;6.53;4.75;;;;;;;12.84;46.45;99572.89;1738506;82;21197;-41
2021/04/29 07:33:51;;;;;;;6.42;4.70;;;;;;;12.91;46.26;99576.29;1725154;82;21174;-41
2021/04/29 07:36:19;;;;;;;5.12;4.40;;;;;;;13.00;46.32;99576.22;1720980;82;21171;-42
2021/04/29 07:38:47;;;;;;;5.42;4.33;;;;;;;13.12;45.76;99589.42;1739247;81;21641;-41
2021/04/29 07:41:15;;;;;;;6.12;4.60;;;;;;;13.21;45.97;99579.02;1739181;81;21377;-41
2021/04/29 07:43:43;;;;;;;6.53;4.60;;;;;;;13.31;45.49;99579.13;1739140;82;21195;-41
2021/04/29 07:46:10;;;;;;;8.85;4.60;;;;;;;13.40;45.45;99573.41;1739215;82;21151;-42
2021/04/29 07:48:38;;;;;;;6.05;4.80;;;;;;;13.47;45.24;99572.10;1739262;82;21645;-41
2021/04/29 07:51:06;;;;;;;5.80;4.58;;;;;;;13.56;45.52;99579.97;1739185;81;21163;-41
2021/04/29 07:53:34;;;;;;;5.58;4.58;;;;;;;13.63;44.52;99580.05;1739139;82;21282;-41
2021/04/29 07:56:05;;;;;;;8.48;4.30;;;;;;;13.69;44.48;99578.56;1739071;82;21383;-41
2021/04/29 07:58:32;;;;;;;5.75;3.65;;;;;;;13.69;44.10;99597.64;1739263;81;21146;-41
2021/04/29 08:01:01;;;;;;;5.72;4.33;;;;;;;13.71;44.27;99578.95;1738822;81;21215;-41
2021/04/29 08:03:29;;;;;;;6.45;4.45;;;;;;;13.71;43.42;99578.38;1709692;83;21227;-41
2021/04/29 08:05:57;;;;;;;7.92;4.40;;;;;;;13.76;43.92;99580.77;1709632;83;21399;-41
2021/04/29 08:08:25;;;;;;;7.97;4.78;;;;;;;13.83;43.90;99575.97;1709687;83;21598;-41
2021/04/29 08:10:53;;;;;;;9.43;4.92;;;;;;;13.94;43.73;99571.41;1709589;83;21065;-41
2021/04/29 08:13:20;;;;;;;7.10;4.70;;;;;;;14.09;43.74;99568.98;1726112;81;21047;-41
2021/04/29 08:15:49;;;;;;;8.00;4.90;;;;;;;14.28;43.32;99566.00;1734446;81;21153;-41
2021/04/29 08:18:17;;;;;;;8.68;4.87;;;;;;;14.34;42.29;99574.05;1733171;82;21436;-41
2021/04/29 08:20:47;;;;;;;6.05;4.33;;;;;;;14.30;42.45;99578.70;1733190;82;21655;-42
2021/04/29 08:23:15;;;;;;;5.35;4.50;;;;;;;14.30;42.14;99572.45;1737922;82;21152;-42
2021/04/29 08:25:44;;;;;;;6.78;4.03;;;;;;;14.35;42.96;99563.34;1769142;81;21161;-42
2021/04/29 08:28:12;;;;;;;8.00;4.28;;;;;;;14.55;41.34;99565.84;1769311;81;21639;-42
2021/04/29 08:30:40;;;;;;;4.97;4.03;;;;;;;14.64;40.90;99571.16;1769181;81;21380;-42
2021/04/29 08:33:08;;;;;;;5.37;4.30;;;;;;;14.69;41.07;99563.19;1766655;81;21207;-42
2021/04/29 08:35:36;;;;;;;6.00;3.92;;;;;;;14.75;40.47;99557.57;1753708;81;21045;-42
2021/04/29 08:38:04;;;;;;;5.75;4.45;;;;;;;14.85;40.44;99558.21;1767953;81;21183;-42
2021/04/29 08:40:32;;;;;;;4.85;3.58;;;;;;;14.83;39.86;99570.08;1781684;80;21160;-41
2021/04/29 08:42:59;;;;;;;5.58;4.03;;;;;;;14.81;39.73;99559.36;1760567;81;21482;-41
2021/04/29 08:45:27;;;;;;;7.70;3.85;;;;;;;14.91;40.23;99558.02;1760435;81;21248;-41
2021/04/29 08:47:56;;;;;;;4.30;3.33;;;;;;;15.07;40.30;99557.70;1760354;81;21459;-41
2021/04/29 08:50:26;;;;;;;8.20;4.25;;;;;;;15.25;39.60;99552.33;1760459;81;21172;-42
2021/04/29 08:52:54;;;;;;;8.13;4.93;;;;;;;15.37;39.12;99546.48;1760728;81;21176;-42
2021/04/29 08:55:25;;;;;;;6.80;4.85;;;;;;;15.49;39.58;99537.95;1760425;81;21223;-42
2021/04/29 08:57:54;;;;;;;6.35;4.40;;;;;;;15.62;39.15;99538.58;1760047;81;21072;-42
2021/04/29 09:00:24;;;;;;;6.28;4.30;;;;;;;15.77;39.12;99535.86;1760560;81;21630;-42
2021/04/29 09:02:55;;;;;;;6.03;4.40;;;;;;;15.89;39.11;99534.88;1753451;81;21217;-42
2021/04/29 09:08:11;;;;;;;6.97;4.53;;;;;;;16.07;38.60;99515.13;1807962;78;22778;-41
2021/04/29 09:10:41;;;;;;;6.03;4.50;;;;;;;15.99;38.82;99515.53;1783750;80;21637;-41
2021/04/29 09:13:18;;;;;;;6.10;4.85;;;;;;;15.93;38.66;99516.52;1803064;79;22309;-41
2021/04/29 09:15:46;;;;;;;6.33;4.70;;;;;;;15.93;38.74;99506.94;1809184;79;21048;-41
2021/04/29 09:18:16;;;;;;;7.70;4.92;;;;;;;15.95;39.02;99503.24;1804050;78;20985;-41
2021/04/29 09:20:57;;;;;;;5.65;4.47;;;;;;;16.04;38.45;99499.52;1804195;79;21036;-41
2021/04/29 09:23:28;;;;;;;7.12;4.22;;;;;;;16.07;38.25;99492.50;1792850;78;21178;-41
2021/04/29 09:26:00;;;;;;;6.28;4.15;;;;;;;16.07;38.20;99490.52;1748772;82;21970;-41
2021/04/29 09:28:49;;;;;;;3.55;3.02;;;;;;;16.07;37.18;99491.13;1748698;82;21070;-41
2021/04/29 09:31:23;;;;;;;5.57;3.50;;;;;;;16.11;36.80;99500.69;1749217;82;21636;-41
2021/04/29 09:33:55;;;;;;;5.12;4.17;;;;;;;16.22;36.41;99485.80;1755933;81;21060;-41
2021/04/29 09:39:36;;;;;;;5.90;3.70;;;;;;;16.48;35.60;99479.11;1786965;79;22282;-41
2021/04/29 09:42:04;;;;;;;7.83;4.15;;;;;;;16.57;34.97;99476.73;1762000;81;21055;-41
2021/04/29 09:44:34;;;;;;;5.47;4.00;;;;;;;16.75;35.06;99473.36;1761919;81;21272;-41
2021/04/29 09:47:08;;;;;;;4.85;3.40;;;;;;;16.95;34.29;99473.07;1701686;84;21641;-41
2021/04/29 09:49:38;;;;;;;3.90;3.30;;;;;;;17.08;33.73;99463.05;1701653;84;21099;-41
2021/04/29 09:52:23;;;;;;;10.45;3.60;;;;;;;17.22;33.83;99455.52;1701691;84;21701;-41
2021/04/29 09:54:53;;;;;;;5.58;3.55;;;;;;;17.52;33.80;99456.29;1701298;84;21032;-41
2021/04/29 09:57:28;;;;;;;5.83;3.77;;;;;;;17.65;33.29;99449.16;1741488;82;21371;-41
2021/04/29 09:59:58;;;;;;;5.85;3.62;;;;;;;17.71;32.45;99455.77;1741002;82;21088;-42
2021/04/29 10:02:28;;;;;;;6.10;4.05;;;;;;;17.73;32.80;99445.16;1715908;83;21662;-41
2021/04/29 10:04:56;;;;;;;5.53;3.27;;;;;;;17.73;32.86;99468.47;1712915;83;21645;-41
2021/04/29 10:07:25;;;;;;;7.97;4.15;;;;;;;17.75;32.59;99438.69;1709260;83;21148;-42
2021/04/29 10:09:53;;;;;;;4.90;3.40;;;;;;;17.81;32.41;99449.39;1722783;82;22219;-42
2021/04/29 10:12:24;;;;;;;5.87;3.50;;;;;;;17.77;32.21;99452.76;1714426;81;21210;-41
2021/04/29 10:14:52;;;;;;;5.33;3.30;;;;;;;17.69;32.12;99440.30;1718244;83;21181;-41
2021/04/29 10:17:21;;;;;;;3.92;3.00;;;;;;;17.62;32.04;99440.97;1722771;83;21644;-41
2021/04/29 10:19:55;;;;;;;4.20;3.05;;;;;;;17.60;32.82;99429.61;1722885;83;21171;-41
2021/04/29 10:22:23;;;;;;;6.58;3.65;;;;;;;17.81;33.29;99419.22;1722832;83;21359;-41
2021/04/29 10:24:51;;;;;;;5.17;3.55;;;;;;;18.17;31.89;99413.38;1712808;81;21226;-41
2021/04/29 10:27:25;;;;;;;5.35;3.58;;;;;;;18.48;32.05;99414.99;1722678;83;21158;-41
2021/04/29 10:30:06;;;;;;;4.12;3.30;;;;;;;18.74;31.62;99423.70;1722866;83;21153;-42
2021/04/29 10:32:34;;;;;;;;;;;;;;;18.85;31.47;99416.88;1725345;83;21171;-41
2021/04/29 10:35:20;;;;;;;4.15;3.22;;;;;;;19.04;31.31;99404.45;1722795;81;21425;-42
2021/04/29 10:37:59;;;;;;;5.62;3.70;;;;;;;19.11;30.50;99408.48;1726600;81;21640;-41
2021/04/29 10:40:38;;;;;;;3.98;3.20;;;;;;;19.21;30.64;99415.79;1743188;82;21067;-42
2021/04/29 10:43:08;;;;;;;3.90;3.50;;;;;;;19.29;30.37;99408.98;1743244;82;21154;-42
2021/04/29 10:45:36;;;;;;;4.90;3.50;;;;;;;19.53;30.59;99409.20;1743427;82;21641;-41
2021/04/29 10:48:07;;;;;;;4.75;3.33;;;;;;;19.85;29.88;99399.02;1743139;82;21158;-42
2021/04/29 10:50:51;;;;;;;3.77;3.10;;;;;;;20.12;29.51;99397.55;1742774;82;21158;-42
2021/04/29 10:53:32;;;;;;;4.65;3.37;;;;;;;20.31;29.54;99390.52;1742625;82;21185;-42
2021/04/29 10:56:15;;;;;;;4.47;3.20;;;;;;;20.50;29.22;99393.86;1742769;82;21142;-42
2021/04/29 10:58:44;;;;;;;4.45;3.27;;;;;;;20.64;28.93;99392.78;1742678;82;21613;-41
2021/04/29 11:01:18;;;;;;;5.10;3.45;;;;;;;20.83;28.97;99398.25;1711909;83;21365;-42
2021/04/29 11:03:51;;;;;;;4.55;3.15;;;;;;;21.02;28.57;99389.75;1708227;84;21573;-41
2021/04/29 11:06:30;;;;;;;3.70;3.30;;;;;;;21.07;28.60;99397.52;1708373;84;21589;-41
2021/04/29 11:08:58;;;;;;;5.53;3.52;;;;;;;21.07;28.42;99396.14;1708512;84;21137;-41
2021/04/29 11:11:36;;;;;;;6.42;3.50;;;;;;;21.03;28.48;99392.69;1708106;84;21133;-41
2021/04/29 11:14:16;;;;;;;6.37;3.58;;;;;;;20.89;28.67;99397.15;1695601;84;22007;-41
2021/04/29 11:16:55;;;;;;;7.28;4.03;;;;;;;20.83;28.78;99402.98;1693613;84;21203;-41
2021/04/29 11:19:50;;;;;;;6.50;3.40;;;;;;;20.81;28.94;99372.34;1694139;84;21021;-41
2021/04/29 11:22:33;;;;;;;7.47;3.92;;;;;;;20.87;28.92;99384.98;1695094;82;21191;-41
2021/04/29 11:25:02;;;;;;;3.87;3.37;;;;;;;20.87;28.59;99379.47;1708154;84;21177;-41
2021/04/29 11:27:35;;;;;;;5.33;3.27;;;;;;;20.93;29.02;99370.28;1708495;84;21636;-41
2021/04/29 11:30:08;;;;;;;4.42;3.50;;;;;;;21.07;28.58;99384.33;1708159;84;21110;-41
2021/04/29 11:32:37;;;;;;;5.37;3.52;;;;;;;21.12;28.13;99376.92;1708111;84;21019;-42
2021/04/29 11:35:09;;;;;;;5.80;3.45;;;;;;;21.17;28.27;99371.70;1680674;84;21278;-41
2021/04/29 11:37:43;;;;;;;3.92;3.00;;;;;;;21.34;27.88;99372.50;1678383;84;21632;-41
2021/04/29 11:40:15;;;;;;;3.92;2.80;;;;;;;21.42;27.91;99355.16;1679636;84;21183;-41
2021/04/29 11:42:55;;;;;;;5.97;3.10;;;;;;;21.37;27.94;99377.73;1679572;85;21149;-42
2021/04/29 11:45:29;;;;;;;3.45;2.95;;;;;;;21.30;27.72;99365.52;1698605;83;21221;-41
2021/04/29 11:48:05;;;;;;;3.35;3.05;;;;;;;21.25;27.46;99362.05;1698716;84;21201;-41
2021/04/29 11:50:54;;;;;;;5.50;2.85;;;;;;;21.22;27.64;99356.62;1698937;84;21228;-41
2021/04/29 11:53:27;;;;;;;5.20;2.92;;;;;;;21.31;27.85;99350.50;1750269;81;21392;-41